Airfield :
LOGIN :

Register | Disclaimer

   EN    FR    IT 

 










Legend :    VFR   Marginal VFR   IFR   Intensive IFR   Very Intensive IFR
Visi :
Ceiling :
>= 8 km
>= 3000ft
5 to 8 km
1000 to 3000 ft
1500m to 5 km
500 to 1000 ft
800 to 1500m
200 to 500 ft
< 800m
< 200 ft
Symbols :   Thunderstorms  Fog  Heavy snow  Heavy precipitations  Wind > 20 kt
SIGMETs :     Misc.  Thunderstorms  Icing  Turbulence  Mountain Waves  Volcanic Ashes






- Airport Elevation : 25 ft
- IATA code : BNN


ENBN - Brønnøysund

CURRENT METAR :
  • 200050Z AUTO 33022KT 9999NDV FEW006/// SCT027/// BKN041/// M01/M05 Q1000

EXPIRED METARs :
  • 200020Z AUTO 34026G37KT 7000NDV VV/// M01/M05 Q0999
  • 192350Z 35024KT 9999 VCSH FEW015 BKN030 00/M08 Q0998
  • 192320Z 35026G40KT 9999 -SHSN FEW010CB BKN018 00/M07 Q0998
  • 192250Z 35026G39KT 9999 VCSH FEW015CB BKN035 00/M08 Q0997
  • 192220Z 35027G40KT 9999 -SHSN FEW015CB BKN030 00/M07 Q0996

TAF COR TAF ENBN
Valid from the 20 at 00:00 until the 20 at 09:00 UTC


192300Z 2000/2009 32018KT 9999 FEW015 BKN030
TEMPO 2000/2009 32025G40KT 1000 SHSN VV007
TEMPO 2000/2009 SCT015CB
PROB30
TEMPO 2005/2009 0400 +SHSN VV004



MET'MAP, your aeronautical weather chart ! - Copyright ORBIFLY December 2007 - Disclaimer

ORBIFLY MET'MAP TEAM :

Programming & Development : Alexandra Zaïnal
Concept & original design : Baudouin d'Aumeries
Assistance for programming : Marc-Olivier Méhu
Technical & hardware support : Manuel Goepfert

Contact : metmap@orbifly.com




SOURCES & CREDITS :

   NOAA